Time;durP1;ratioP1;P1;durP2;ratioP2;P2;SDS_P1;SDS_P2;PMS_P1;PMS_P2;Temp;Humidity;BMP_temperature;BMP_pressure;BME280_temperature;BME280_humidity;BME280_pressure;Samples;Min_cycle;Max_cycle;Signal;HPM_P1;HPM_P2
2021/01/05 05:02:43;;;;;;;36.55;18.17;;;;;;;-0.57;91.74;99551.96;1816074;79;21942;-67
2021/01/05 05:05:32;;;;;;;29.65;16.97;;;;;;;-0.55;91.78;99545.58;1776871;80;20945;-68
2021/01/05 05:08:27;;;;;;;26.33;15.32;;;;;;;-0.49;91.68;99540.52;1789116;80;21379;-68
2021/01/05 05:11:00;;;;;;;24.47;14.68;;;;;;;-0.41;91.69;99549.92;1789162;80;20969;-68
2021/01/05 05:14:00;;;;;;;19.80;11.63;;;;;;;-0.30;91.63;99535.89;1725203;81;21069;-69
2021/01/05 05:17:09;;;;;;;26.65;14.30;;;;;;;-0.19;91.00;99546.13;1704332;84;21068;-68
2021/01/05 05:19:54;;;;;;;22.45;13.55;;;;;;;-0.14;90.75;99545.30;1733396;82;21447;-69
2021/01/05 05:22:48;;;;;;;23.95;13.60;;;;;;;-0.09;90.56;99541.48;1730634;82;21630;-67
2021/01/05 05:25:27;;;;;;;20.68;13.03;;;;;;;0.04;90.26;99539.80;1890017;76;22674;-69
2021/01/05 05:28:08;;;;;;;20.68;13.20;;;;;;;0.03;89.94;99556.84;1828943;77;21036;-68
2021/01/05 05:30:39;;;;;;;21.80;12.85;;;;;;;0.06;89.70;99564.53;1860935;77;21423;-67
2021/01/05 05:33:24;;;;;;;20.57;12.68;;;;;;;0.06;89.42;99579.88;1860909;77;20978;-68
2021/01/05 05:36:12;;;;;;;24.47;13.05;;;;;;;0.04;89.39;99583.27;1859619;77;21041;-68
2021/01/05 05:39:19;;;;;;;24.32;13.90;;;;;;;0.03;89.49;99572.19;1860924;77;21596;-69
2021/01/05 05:42:43;;;;;;;31.87;16.00;;;;;;;0.02;89.44;99558.12;1860961;77;21564;-68
2021/01/05 05:45:25;;;;;;;22.40;13.45;;;;;;;0.04;89.69;99554.72;1870078;76;21196;-68
2021/01/05 05:48:21;;;;;;;21.30;13.15;;;;;;;0.09;89.50;99570.08;1881513;76;20933;-68
2021/01/05 05:51:08;;;;;;;19.85;12.47;;;;;;;0.14;89.56;99564.13;1806754;79;21607;-69
2021/01/05 05:53:47;;;;;;;21.65;11.63;;;;;;;0.17;89.29;99553.91;1822903;78;21213;-69
2021/01/05 05:56:17;;;;;;;19.92;13.90;;;;;;;0.17;89.05;99559.03;1807144;79;21040;-69
2021/01/05 05:58:52;;;;;;;18.92;11.83;;;;;;;0.14;88.73;99564.13;1822845;78;21369;-68
2021/01/05 06:01:25;;;;;;;20.37;12.47;;;;;;;0.10;88.95;99567.95;1822764;78;21182;-68
2021/01/05 06:03:53;;;;;;;18.55;12.43;;;;;;;0.12;89.22;99567.11;1822758;78;21063;-68
2021/01/05 06:06:22;;;;;;;18.92;12.53;;;;;;;0.15;89.11;99564.56;1806937;78;21068;-69
2021/01/05 06:08:50;;;;;;;19.27;12.20;;;;;;;0.18;89.21;99564.57;1804273;79;21048;-68
2021/01/05 06:11:17;;;;;;;14.47;10.18;;;;;;;0.20;89.18;99552.61;1822627;78;21560;-69
2021/01/05 06:13:45;;;;;;;17.02;10.45;;;;;;;0.27;89.07;99562.44;1807089;78;21159;-69
2021/01/05 06:16:13;;;;;;;20.12;12.13;;;;;;;0.29;88.79;99578.64;1822779;78;21497;-68
2021/01/05 06:18:40;;;;;;;19.27;13.35;;;;;;;0.28;88.78;99573.09;1807128;79;21119;-69
2021/01/05 06:21:08;;;;;;;15.98;11.28;;;;;;;0.27;88.94;99571.39;1822788;78;21153;-68
2021/01/05 06:23:36;;;;;;;20.97;13.80;;;;;;;0.28;89.09;99573.09;1822504;78;21438;-69
2021/01/05 06:26:04;;;;;;;19.77;12.03;;;;;;;0.33;89.05;99575.24;1806916;79;21523;-68
2021/01/05 06:28:31;;;;;;;20.35;12.07;;;;;;;0.43;89.27;99571.83;1822757;78;21044;-66
2021/01/05 06:30:59;;;;;;;16.93;11.90;;;;;;;0.54;89.22;99556.50;1807001;79;21150;-67
2021/01/05 06:33:27;;;;;;;19.60;11.10;;;;;;;0.61;88.63;99574.82;1822695;78;21048;-67
2021/01/05 06:35:55;;;;;;;19.98;11.60;;;;;;;0.59;88.24;99574.84;1822369;78;21369;-65
2021/01/05 06:38:23;;;;;;;25.27;15.10;;;;;;;0.59;88.47;99583.80;1820198;78;21195;-67
2021/01/05 06:40:50;;;;;;;33.48;16.35;;;;;;;0.61;88.47;99573.11;1818697;78;21114;-66
2021/01/05 06:43:18;;;;;;;20.45;11.93;;;;;;;0.65;88.47;99563.31;1820936;78;21138;-64
2021/01/05 06:45:46;;;;;;;16.87;11.30;;;;;;;0.68;88.23;99542.83;1806232;79;21115;-66
2021/01/05 06:48:13;;;;;;;15.00;11.05;;;;;;;0.68;88.00;99541.55;1821784;78;21387;-63
2021/01/05 06:50:42;;;;;;;18.75;11.83;;;;;;;0.65;87.83;99553.50;1806359;79;21076;-65
2021/01/05 06:53:09;;;;;;;28.32;14.73;;;;;;;0.60;88.06;99555.23;1822211;78;21520;-65
2021/01/05 06:55:37;;;;;;;20.70;13.95;;;;;;;0.60;88.34;99556.05;1806406;79;21119;-65
2021/01/05 06:58:05;;;;;;;29.75;16.07;;;;;;;0.64;88.27;99538.56;1822096;78;21135;-65
2021/01/05 07:00:33;;;;;;;18.62;12.05;;;;;;;0.65;88.12;99545.81;1822114;78;21221;-66
2021/01/05 07:03:01;;;;;;;28.38;14.80;;;;;;;0.63;88.21;99550.94;1806240;78;21073;-64
2021/01/05 07:05:30;;;;;;;36.68;17.27;;;;;;;0.64;88.45;99553.92;1822094;78;21467;-64
2021/01/05 07:07:57;;;;;;;21.60;14.43;;;;;;;0.63;88.34;99549.66;1806375;79;21111;-65
2021/01/05 07:10:26;;;;;;;27.73;13.72;;;;;;;0.61;88.38;99562.02;1822081;78;21162;-65
2021/01/05 07:12:53;;;;;;;72.95;25.57;;;;;;;0.62;88.46;99567.56;1806360;79;21366;-64
2021/01/05 07:15:21;;;;;;;33.88;18.05;;;;;;;0.63;88.60;99568.84;1822077;78;21084;-65
2021/01/05 07:17:49;;;;;;;23.38;14.87;;;;;;;0.65;88.49;99565.86;1822062;78;21131;-65
2021/01/05 07:20:17;;;;;;;56.30;22.90;;;;;;;0.62;88.36;99548.38;1806308;79;21144;-65
2021/01/05 07:22:45;;;;;;;28.73;16.87;;;;;;;0.60;88.49;99545.81;1822118;78;21159;-64
2021/01/05 07:25:13;;;;;;;28.77;15.70;;;;;;;0.64;88.59;99536.43;1821886;78;21358;-65
2021/01/05 07:27:41;;;;;;;32.65;20.10;;;;;;;0.70;88.34;99535.16;1806407;79;21500;-65
2021/01/05 07:30:10;;;;;;;30.08;17.20;;;;;;;0.69;88.23;99539.84;1818346;78;21060;-66
2021/01/05 07:32:38;;;;;;;39.08;19.75;;;;;;;0.67;88.34;99530.89;1789741;80;21131;-63
2021/01/05 07:35:10;;;;;;;33.65;19.23;;;;;;;0.68;88.55;99539.00;1789771;80;21143;-66
2021/01/05 07:37:41;;;;;;;30.37;18.75;;;;;;;0.75;88.71;99551.80;1789817;80;21212;-65
2021/01/05 07:40:10;;;;;;;37.40;19.00;;;;;;;0.87;88.45;99555.61;1789738;80;21123;-62
2021/01/05 07:42:38;;;;;;;35.20;19.95;;;;;;;0.90;88.30;99550.49;1761257;80;21627;-64
2021/01/05 07:45:11;;;;;;;37.30;21.27;;;;;;;0.93;88.19;99554.34;1789658;78;21118;-62
2021/01/05 07:47:38;;;;;;;38.90;21.30;;;;;;;0.97;88.26;99558.61;1792787;78;21512;-65
2021/01/05 07:50:08;;;;;;;33.08;20.12;;;;;;;1.03;88.19;99544.06;1799994;78;21195;-68
2021/01/05 07:52:39;;;;;;;33.80;19.32;;;;;;;1.13;87.94;99535.94;1792947;78;21178;-64
2021/01/05 07:55:13;;;;;;;34.18;19.35;;;;;;;1.19;87.36;99546.19;1792542;78;21129;-69
2021/01/05 07:57:41;;;;;;;38.02;22.13;;;;;;;1.20;87.47;99545.30;1774365;78;21615;-65
2021/01/05 08:00:13;;;;;;;42.00;23.42;;;;;;;1.25;87.35;99547.85;1801525;79;21106;-64
2021/01/05 08:02:41;;;;;;;36.83;19.80;;;;;;;1.28;87.29;99538.88;1790129;78;21428;-64
2021/01/05 08:05:13;;;;;;;32.42;19.30;;;;;;;1.30;86.95;99528.20;1788019;80;21154;-65
2021/01/05 08:07:41;;;;;;;32.23;19.02;;;;;;;1.26;86.60;99520.95;1787256;80;21194;-64
2021/01/05 08:10:14;;;;;;;35.35;21.15;;;;;;;1.24;86.53;99512.84;1788370;80;21139;-66
2021/01/05 08:12:41;;;;;;;28.17;16.02;;;;;;;1.20;86.38;99495.80;1788555;79;21177;-65
2021/01/05 08:15:13;;;;;;;34.65;19.70;;;;;;;1.17;86.53;99508.19;1789448;80;21379;-64
2021/01/05 08:17:40;;;;;;;36.30;20.43;;;;;;;1.20;86.45;99500.46;1789679;80;21152;-65
2021/01/05 08:20:10;;;;;;;32.20;20.08;;;;;;;1.19;86.49;99495.38;1789775;80;21107;-65
2021/01/05 08:22:37;;;;;;;30.15;17.48;;;;;;;1.23;86.60;99495.33;1789693;80;21131;-64
2021/01/05 08:25:08;;;;;;;33.88;20.57;;;;;;;1.25;86.14;99494.05;1791096;80;21131;-64
2021/01/05 08:27:35;;;;;;;30.95;18.67;;;;;;;1.27;86.25;99500.02;1792684;80;21393;-63
2021/01/05 08:30:07;;;;;;;31.90;18.48;;;;;;;1.24;86.03;99505.16;1792712;80;21099;-64
2021/01/05 08:32:35;;;;;;;32.95;19.75;;;;;;;1.24;86.07;99519.24;1793571;78;21135;-65
2021/01/05 08:35:09;;;;;;;30.60;17.55;;;;;;;1.22;86.10;99502.59;1792725;79;21077;-64
2021/01/05 08:37:40;;;;;;;29.07;17.82;;;;;;;1.17;86.02;99500.93;1793158;80;21569;-64
2021/01/05 08:40:11;;;;;;;31.50;18.87;;;;;;;1.12;86.42;99501.36;1792724;80;21473;-64
2021/01/05 08:42:39;;;;;;;32.35;18.65;;;;;;;1.12;86.59;99485.99;1792603;80;21512;-64
2021/01/05 08:45:08;;;;;;;37.42;19.95;;;;;;;1.17;86.53;99487.69;1792576;80;21135;-65
2021/01/05 08:47:36;;;;;;;32.28;19.40;;;;;;;1.19;86.51;99489.82;1792737;80;21135;-65
2021/01/05 08:50:07;;;;;;;36.17;19.42;;;;;;;1.23;86.77;99495.76;1792829;80;21834;-65
2021/01/05 08:52:34;;;;;;;31.23;17.48;;;;;;;1.27;86.59;99473.97;1792714;79;21422;-64
2021/01/05 08:55:03;;;;;;;29.20;17.23;;;;;;;1.32;86.71;99476.09;1792635;80;21084;-64
2021/01/05 08:57:31;;;;;;;28.27;17.25;;;;;;;1.36;86.22;99483.34;1792818;80;21469;-64
2021/01/05 08:59:59;;;;;;;31.33;17.73;;;;;;;1.34;86.29;99492.75;1792782;80;21132;-64
2021/01/05 09:02:28;;;;;;;38.30;19.70;;;;;;;1.33;86.16;99491.05;1792849;80;21127;-65
2021/01/05 09:04:56;;;;;;;35.23;18.55;;;;;;;1.35;86.28;99491.46;1792736;80;22342;-66
2021/01/05 09:07:25;;;;;;;28.35;15.50;;;;;;;1.40;86.27;99491.42;1792685;79;21179;-63
2021/01/05 09:09:52;;;;;;;29.75;16.90;;;;;;;1.48;86.21;99488.41;1792685;80;21055;-65
2021/01/05 09:12:21;;;;;;;33.18;18.45;;;;;;;1.51;86.08;99485.83;1792702;80;21036;-65
2021/01/05 09:14:49;;;;;;;34.53;18.48;;;;;;;1.55;86.06;99473.43;1792766;78;21100;-66
2021/01/05 09:17:17;;;;;;;27.85;16.93;;;;;;;1.61;86.06;99468.25;1791675;80;21331;-65
2021/01/05 09:19:45;;;;;;;29.45;16.52;;;;;;;1.65;85.76;99476.34;1791617;80;21178;-67
2021/01/05 09:22:12;;;;;;;23.73;14.33;;;;;;;1.65;85.43;99460.97;1792050;80;21138;-65
2021/01/05 09:24:40;;;;;;;25.50;15.85;;;;;;;1.64;85.50;99455.84;1791266;80;21162;-65
2021/01/05 09:27:08;;;;;;;29.82;16.65;;;;;;;1.64;85.40;99463.53;1789396;78;21131;-65
2021/01/05 09:29:36;;;;;;;26.73;17.07;;;;;;;1.61;85.48;99457.14;1791361;80;22243;-64
2021/01/05 09:32:04;;;;;;;27.40;16.52;;;;;;;1.65;85.70;99462.67;1791701;80;21493;-64
2021/01/05 09:34:32;;;;;;;21.97;14.07;;;;;;;1.68;85.58;99457.11;1792120;80;21530;-65
2021/01/05 09:37:05;;;;;;;27.40;14.07;;;;;;;1.68;85.14;99449.84;1792143;79;21080;-64
2021/01/05 09:39:32;;;;;;;20.32;13.62;;;;;;;1.63;85.12;99447.73;1792192;80;21477;-65
2021/01/05 09:42:03;;;;;;;21.60;13.80;;;;;;;1.61;85.35;99453.30;1792063;80;21207;-66
2021/01/05 09:44:31;;;;;;;23.12;14.47;;;;;;;1.61;85.27;99443.89;1792067;80;21288;-66
2021/01/05 09:47:01;;;;;;;20.25;12.70;;;;;;;1.62;85.26;99444.31;1774293;80;21147;-64
2021/01/05 09:49:30;;;;;;;21.93;13.03;;;;;;;1.62;85.12;99440.47;1790642;80;21171;-65
2021/01/05 09:51:59;;;;;;;18.77;12.43;;;;;;;1.63;85.11;99443.45;1791824;80;21181;-65
2021/01/05 09:54:28;;;;;;;19.25;12.20;;;;;;;1.65;84.98;99444.73;1791194;80;21369;-65
2021/01/05 09:56:56;;;;;;;21.25;14.15;;;;;;;1.65;85.09;99430.63;1790954;80;21175;-65
2021/01/05 09:59:28;;;;;;;25.72;15.18;;;;;;;1.69;85.22;99424.63;1791844;79;21461;-64
2021/01/05 10:01:56;;;;;;;16.77;12.50;;;;;;;1.70;84.99;99414.80;1791414;80;21174;-64
2021/01/05 10:04:26;;;;;;;17.80;12.85;;;;;;;1.68;85.02;99422.50;1792068;79;21068;-64
2021/01/05 10:06:54;;;;;;;22.93;12.40;;;;;;;1.70;85.14;99417.36;1792070;80;23673;-64
2021/01/05 10:09:22;;;;;;;20.50;13.90;;;;;;;1.74;84.90;99417.77;1792077;79;21099;-64
2021/01/05 10:11:50;;;;;;;26.15;14.43;;;;;;;1.71;84.76;99416.07;1792203;80;21111;-64
2021/01/05 10:14:19;;;;;;;22.00;13.53;;;;;;;1.71;85.04;99410.09;1792250;80;21112;-64
2021/01/05 10:16:55;;;;;;;19.20;13.48;;;;;;;1.76;85.07;99404.94;1792408;80;21552;-64
2021/01/05 10:19:23;;;;;;;20.23;13.25;;;;;;;1.78;84.93;99400.22;1792306;80;21240;-67
2021/01/05 10:21:51;;;;;;;21.50;13.98;;;;;;;1.78;84.92;99397.66;1792385;80;21076;-64
2021/01/05 10:24:19;;;;;;;23.83;14.25;;;;;;;1.79;85.00;99393.38;1792167;79;21140;-64
2021/01/05 10:26:54;;;;;;;24.32;14.20;;;;;;;1.82;84.93;99392.91;1798367;79;21099;-65
2021/01/05 10:29:23;;;;;;;22.58;13.28;;;;;;;1.83;84.66;99386.06;1815808;78;21047;-64
2021/01/05 10:31:51;;;;;;;21.33;13.60;;;;;;;1.80;84.56;99377.14;1820921;78;21132;-64
2021/01/05 10:34:23;;;;;;;24.25;14.87;;;;;;;1.71;84.50;99372.48;1797547;79;21111;-64
2021/01/05 10:36:54;;;;;;;27.48;15.83;;;;;;;1.62;84.97;99368.69;1820912;78;21056;-64
2021/01/05 10:39:23;;;;;;;28.47;16.97;;;;;;;1.60;84.98;99359.34;1819302;78;21060;-64
2021/01/05 10:41:50;;;;;;;27.15;15.63;;;;;;;1.54;85.50;99364.50;1798409;79;21650;-66
2021/01/05 10:44:20;;;;;;;26.55;16.15;;;;;;;1.52;85.67;99363.23;1799222;79;21397;-65
2021/01/05 10:46:48;;;;;;;29.85;17.42;;;;;;;1.53;85.98;99364.08;1801217;79;21138;-64
2021/01/05 10:49:16;;;;;;;34.08;19.17;;;;;;;1.57;86.13;99352.95;1801219;79;21566;-63
2021/01/05 10:51:49;;;;;;;34.85;18.20;;;;;;;1.61;86.11;99354.60;1801567;79;21503;-63
2021/01/05 10:54:17;;;;;;;;;;;;;;;1.63;86.15;99349.03;1804068;79;21531;-65
2021/01/05 10:56:46;;;;;;;32.00;17.73;;;;;;;1.66;86.15;99341.33;1801303;79;21212;-65
2021/01/05 10:59:15;;;;;;;33.23;18.15;;;;;;;1.68;86.16;99338.33;1800892;79;21185;-65
2021/01/05 11:01:43;;;;;;;34.70;19.60;;;;;;;1.70;85.96;99332.75;1801246;79;21480;-65
2021/01/05 11:04:10;;;;;;;45.10;22.40;;;;;;;1.70;86.09;99338.73;1801203;79;21813;-65
2021/01/05 11:06:38;;;;;;;37.90;20.35;;;;;;;1.72;85.98;99330.60;1801285;79;21115;-65
2021/01/05 11:09:06;;;;;;;42.25;20.60;;;;;;;1.76;86.08;99338.27;1801325;79;21547;-64
2021/01/05 11:11:35;;;;;;;45.35;22.42;;;;;;;1.76;85.79;99342.12;1801215;79;21070;-64
2021/01/05 11:14:02;;;;;;;45.35;24.12;;;;;;;1.75;86.06;99337.42;1801259;79;21516;-65
2021/01/05 11:16:30;;;;;;;41.92;23.20;;;;;;;1.78;86.18;99343.81;1801133;79;21084;-64
2021/01/05 11:18:58;;;;;;;42.65;21.95;;;;;;;1.79;86.25;99339.11;1801007;79;21590;-64
2021/01/05 11:21:25;;;;;;;36.85;21.50;;;;;;;1.83;86.11;99333.49;1801245;79;21992;-65
2021/01/05 11:23:53;;;;;;;35.95;20.52;;;;;;;1.82;86.11;99322.38;1801121;79;21086;-64
2021/01/05 11:26:21;;;;;;;45.25;24.25;;;;;;;1.83;86.08;99329.22;1790412;79;21159;-65
2021/01/05 11:28:52;;;;;;;48.20;24.02;;;;;;;1.84;86.41;99319.38;1783595;79;21167;-65
2021/01/05 11:31:20;;;;;;;42.08;22.85;;;;;;;1.91;86.50;99318.91;1783663;80;21203;-65
2021/01/05 11:33:48;;;;;;;42.83;23.95;;;;;;;1.98;86.30;99328.25;1782397;80;21205;-66
2021/01/05 11:36:27;;;;;;;44.08;23.00;;;;;;;1.96;85.94;99328.27;1787319;79;21119;-65
2021/01/05 11:38:54;;;;;;;37.50;21.52;;;;;;;1.95;85.97;99326.56;1794124;79;21119;-65
2021/01/05 11:41:29;;;;;;;41.40;23.10;;;;;;;1.92;85.93;99319.32;1794202;80;21115;-65
2021/01/05 11:43:57;;;;;;;41.40;23.02;;;;;;;1.88;85.95;99314.64;1794335;79;21579;-64
2021/01/05 11:46:26;;;;;;;41.25;23.67;;;;;;;1.85;86.25;99315.95;1793806;80;21378;-64
2021/01/05 11:48:55;;;;;;;38.53;21.45;;;;;;;1.86;86.33;99308.68;1789080;79;21163;-65
2021/01/05 11:51:29;;;;;;;41.42;23.98;;;;;;;1.89;86.20;99308.66;1779799;79;21208;-66
2021/01/05 11:53:57;;;;;;;44.63;23.90;;;;;;;1.88;86.31;99317.64;1780567;80;21172;-67
2021/01/05 11:56:28;;;;;;;41.10;22.90;;;;;;;1.91;86.37;99320.19;1783894;80;21515;-66
2021/01/05 11:58:56;;;;;;;42.03;23.65;;;;;;;1.90;86.34;99323.18;1783787;80;21395;-64
2021/01/05 12:01:24;;;;;;;40.85;23.12;;;;;;;1.90;86.23;99309.08;1783894;80;21252;-67
2021/01/05 12:03:52;;;;;;;36.42;21.00;;;;;;;1.92;86.41;99314.19;1791110;79;21040;-65
2021/01/05 12:06:23;;;;;;;33.73;19.73;;;;;;;1.95;86.38;99316.30;1790576;80;21151;-65
2021/01/05 12:08:51;;;;;;;36.88;20.88;;;;;;;1.97;86.22;99319.70;1792081;80;21487;-64
2021/01/05 12:11:27;;;;;;;28.12;17.92;;;;;;;1.97;86.31;99324.84;1794279;80;21543;-65
2021/01/05 12:13:55;;;;;;;30.48;17.52;;;;;;;1.97;86.14;99313.73;1793767;79;21147;-64
2021/01/05 12:16:30;;;;;;;26.05;16.75;;;;;;;1.97;86.32;99320.98;1794260;79;21092;-65
2021/01/05 12:19:00;;;;;;;29.42;16.25;;;;;;;2.02;86.42;99324.34;1795010;80;21111;-65
2021/01/05 12:21:31;;;;;;;23.98;16.15;;;;;;;2.05;85.94;99344.83;1795226;79;21568;-64
2021/01/05 12:23:59;;;;;;;29.48;18.07;;;;;;;2.04;86.10;99339.72;1795183;80;21536;-65
2021/01/05 12:26:39;;;;;;;27.37;16.75;;;;;;;2.07;86.11;99349.95;1794771;80;21905;-64
2021/01/05 12:29:12;;;;;;;26.52;16.37;;;;;;;2.12;85.92;99347.35;1794993;80;21134;-66
2021/01/05 12:32:11;;;;;;;26.05;17.17;;;;;;;2.13;85.87;99350.34;1877265;75;22674;-65
2021/01/05 12:34:42;;;;;;;26.60;16.10;;;;;;;2.05;85.80;99352.96;1778338;79;21067;-65
2021/01/05 12:37:14;;;;;;;26.73;15.95;;;;;;;2.05;85.92;99349.12;1820757;78;21371;-65
2021/01/05 12:39:42;;;;;;;25.92;14.58;;;;;;;2.04;85.81;99349.98;1773092;79;21115;-65
2021/01/05 12:42:16;;;;;;;18.80;13.72;;;;;;;2.02;85.67;99333.31;1786560;79;21214;-66
2021/01/05 12:44:46;;;;;;;16.32;12.03;;;;;;;2.02;85.64;99333.75;1770282;79;21501;-66
2021/01/05 12:47:14;;;;;;;18.95;13.32;;;;;;;1.97;85.45;99323.55;1749023;81;21115;-65
2021/01/05 12:49:47;;;;;;;19.80;12.23;;;;;;;1.93;85.55;99330.00;1756002;81;21087;-65
2021/01/05 12:52:15;;;;;;;17.05;11.35;;;;;;;1.91;85.52;99322.31;1751730;81;21104;-65
2021/01/05 12:54:42;;;;;;;18.45;10.63;;;;;;;1.90;85.41;99326.17;1751818;81;21150;-64
2021/01/05 12:57:12;;;;;;;18.20;12.05;;;;;;;1.91;85.45;99326.59;1755282;80;21163;-66
2021/01/05 12:59:41;;;;;;;19.27;12.13;;;;;;;1.89;85.23;99321.91;1741396;81;21179;-66
2021/01/05 13:02:17;;;;;;;17.85;12.93;;;;;;;1.84;85.32;99327.50;1780083;80;21284;-65
2021/01/05 13:04:46;;;;;;;18.10;12.35;;;;;;;1.79;85.49;99326.72;1781272;80;21122;-66
2021/01/05 13:07:20;;;;;;;16.30;13.72;;;;;;;1.74;85.45;99319.05;1783630;80;21099;-65
2021/01/05 13:09:56;;;;;;;15.75;12.35;;;;;;;1.67;85.57;99321.23;1786411;80;21123;-65
2021/01/05 13:12:25;;;;;;;16.02;11.63;;;;;;;1.63;85.97;99301.18;1782299;79;21135;-66
2021/01/05 13:14:53;;;;;;;18.12;12.28;;;;;;;1.66;86.07;99311.84;1782672;80;21155;-66
2021/01/05 13:17:21;;;;;;;16.15;12.47;;;;;;;1.72;86.00;99311.38;1773481;80;21346;-66
2021/01/05 13:19:49;;;;;;;19.80;13.43;;;;;;;1.73;85.80;99301.54;1780803;80;21669;-66
2021/01/05 13:22:16;;;;;;;16.40;12.28;;;;;;;1.76;85.89;99307.50;1781697;80;21166;-64
2021/01/05 13:24:44;;;;;;;20.60;14.63;;;;;;;1.81;85.94;99304.45;1780315;80;21115;-66
2021/01/05 13:27:11;;;;;;;18.95;13.43;;;;;;;1.83;85.97;99295.88;1783474;80;21205;-65
2021/01/05 13:29:39;;;;;;;18.07;13.35;;;;;;;1.88;85.92;99294.13;1779539;80;21222;-64
2021/01/05 13:32:16;;;;;;;19.07;13.25;;;;;;;1.90;85.67;99300.09;1782147;80;21075;-67
2021/01/05 13:34:45;;;;;;;24.30;13.10;;;;;;;1.89;85.72;99291.98;1781920;80;21079;-65
2021/01/05 13:37:16;;;;;;;20.68;14.53;;;;;;;1.89;85.76;99293.27;1777220;80;21185;-66
2021/01/05 13:39:46;;;;;;;25.52;16.62;;;;;;;1.90;85.99;99289.84;1791262;80;21324;-64
2021/01/05 13:42:20;;;;;;;21.12;14.93;;;;;;;1.96;85.98;99303.05;1780913;80;21111;-65
2021/01/05 13:44:51;;;;;;;23.83;14.47;;;;;;;1.91;85.64;99292.83;1779460;80;21063;-65
2021/01/05 13:47:21;;;;;;;23.00;14.83;;;;;;;1.85;85.82;99311.25;1781185;80;21064;-65
2021/01/05 13:49:48;;;;;;;20.37;14.13;;;;;;;1.82;85.97;99303.16;1781934;80;21076;-65
2021/01/05 13:52:20;;;;;;;24.05;16.42;;;;;;;1.82;86.05;99305.72;1773103;80;21389;-65
2021/01/05 13:54:47;;;;;;;25.97;15.90;;;;;;;1.80;85.99;99302.31;1784480;80;21068;-65
2021/01/05 13:57:18;;;;;;;18.98;13.83;;;;;;;1.76;86.10;99304.52;1780964;80;21099;-65
2021/01/05 13:59:46;;;;;;;20.80;13.15;;;;;;;1.75;85.98;99298.11;1773756;80;21394;-66
2021/01/05 14:02:13;;;;;;;24.07;13.35;;;;;;;1.68;86.02;99304.56;1740630;80;21164;-64
2021/01/05 14:04:41;;;;;;;19.12;13.48;;;;;;;1.66;86.25;99313.13;1773610;80;21373;-65
2021/01/05 14:07:11;;;;;;;21.07;12.60;;;;;;;1.63;86.25;99310.58;1781038;80;21128;-67
2021/01/05 14:09:39;;;;;;;22.00;13.65;;;;;;;1.62;86.32;99328.95;1783283;80;21155;-66
2021/01/05 14:12:07;;;;;;;17.73;12.85;;;;;;;1.65;86.39;99337.06;1777710;80;21560;-65
2021/01/05 14:14:35;;;;;;;27.77;13.30;;;;;;;1.66;86.21;99337.48;1782916;80;21186;-65
2021/01/05 14:17:02;;;;;;;16.62;12.05;;;;;;;1.66;86.35;99331.07;1780155;80;21286;-64
2021/01/05 14:19:30;;;;;;;18.45;13.32;;;;;;;1.65;86.30;99325.09;1773183;80;21181;-66
2021/01/05 14:21:59;;;;;;;18.90;13.30;;;;;;;1.61;86.26;99326.41;1782238;79;21254;-66
2021/01/05 14:24:30;;;;;;;17.62;11.90;;;;;;;1.60;86.42;99320.89;1773422;80;21079;-65
2021/01/05 14:27:02;;;;;;;16.27;11.85;;;;;;;1.58;86.36;99322.61;1780710;80;21217;-65
2021/01/05 14:29:29;;;;;;;20.80;12.80;;;;;;;1.54;86.43;99314.09;1754847;80;21357;-66
2021/01/05 14:32:03;;;;;;;15.65;12.10;;;;;;;1.50;86.63;99303.44;1759624;80;21083;-65
2021/01/05 14:34:32;;;;;;;19.45;13.78;;;;;;;1.48;86.81;99300.45;1757954;80;21155;-64
2021/01/05 14:37:05;;;;;;;23.30;14.35;;;;;;;1.47;87.15;99311.57;1757668;80;21179;-66
2021/01/05 14:39:35;;;;;;;17.45;12.82;;;;;;;1.51;87.20;99315.39;1757340;81;21256;-65
2021/01/05 14:42:08;;;;;;;23.80;13.43;;;;;;;1.56;86.97;99309.80;1758232;80;21353;-64
2021/01/05 14:44:41;;;;;;;22.42;14.18;;;;;;;1.57;87.02;99310.22;1758251;80;21249;-65
2021/01/05 14:47:20;;;;;;;21.52;14.87;;;;;;;1.60;87.11;99316.58;1759793;80;21228;-65
2021/01/05 14:49:50;;;;;;;21.27;13.85;;;;;;;1.61;87.05;99311.88;1758321;81;22113;-66
2021/01/05 14:52:23;;;;;;;21.12;13.75;;;;;;;1.64;87.13;99317.41;1768230;80;21194;-66
2021/01/05 14:54:51;;;;;;;21.10;14.28;;;;;;;1.66;87.13;99324.23;1781354;79;21584;-65
2021/01/05 14:57:45;;;;;;;19.25;14.20;;;;;;;1.71;86.94;99322.92;1791016;80;21154;-63
2021/01/05 15:00:18;;;;;;;28.90;17.48;;;;;;;1.71;86.89;99322.49;1772701;80;21188;-66
2021/01/05 15:02:47;;;;;;;32.93;17.17;;;;;;;1.76;87.00;99321.61;1741672;81;21138;-66
2021/01/05 15:05:16;;;;;;;19.35;13.50;;;;;;;1.77;86.71;99319.03;1738193;81;21566;-65
2021/01/05 15:07:43;;;;;;;23.22;14.45;;;;;;;1.72;86.48;99311.38;1748158;80;21316;-67
2021/01/05 15:10:14;;;;;;;17.98;13.70;;;;;;;1.67;86.59;99319.95;1739248;81;21600;-65
2021/01/05 15:12:43;;;;;;;22.80;13.83;;;;;;;1.65;86.77;99312.70;1738726;81;21123;-65
2021/01/05 15:15:12;;;;;;;24.85;16.45;;;;;;;1.67;86.91;99313.55;1750241;80;21567;-65
2021/01/05 15:17:42;;;;;;;19.57;12.80;;;;;;;1.70;86.84;99315.66;1738911;81;21183;-66
2021/01/05 15:20:11;;;;;;;16.50;13.15;;;;;;;1.73;86.59;99315.64;1705424;81;21379;-67
2021/01/05 15:22:38;;;;;;;17.17;12.20;;;;;;;1.70;86.34;99304.55;1738798;81;21605;-65
2021/01/05 15:25:07;;;;;;;17.82;12.60;;;;;;;1.68;86.54;99297.30;1751564;81;21057;-66
2021/01/05 15:27:35;;;;;;;16.65;13.10;;;;;;;1.65;86.46;99293.05;1751682;80;21179;-65
2021/01/05 15:30:05;;;;;;;16.45;12.35;;;;;;;1.61;86.59;99292.65;1758373;81;21108;-66
2021/01/05 15:32:33;;;;;;;16.80;11.20;;;;;;;1.59;86.80;99284.16;1753548;80;21435;-65
2021/01/05 15:35:04;;;;;;;19.52;11.70;;;;;;;1.62;86.69;99282.81;1739975;81;21151;-64
2021/01/05 15:37:30;;;;;;;18.10;13.32;;;;;;;1.64;86.90;99276.39;1755217;81;21160;-66
2021/01/05 15:39:58;;;;;;;17.20;12.68;;;;;;;1.66;86.85;99287.06;1764023;81;21056;-65
2021/01/05 15:42:25;;;;;;;14.38;11.48;;;;;;;1.72;87.00;99283.60;1760247;81;21041;-67
2021/01/05 15:44:52;;;;;;;17.90;13.30;;;;;;;1.77;86.68;99285.70;1749025;80;23520;-65
2021/01/05 15:47:20;;;;;;;18.25;13.62;;;;;;;1.76;86.58;99284.00;1745213;80;21159;-65
2021/01/05 15:49:48;;;;;;;20.92;13.32;;;;;;;1.76;86.36;99281.86;1757480;80;21075;-65
2021/01/05 15:52:16;;;;;;;17.87;13.75;;;;;;;1.75;86.28;99282.30;1751324;81;21043;-65
2021/01/05 15:54:43;;;;;;;23.65;13.58;;;;;;;1.70;86.12;99281.05;1749463;80;21092;-65
2021/01/05 15:57:11;;;;;;;18.15;11.85;;;;;;;1.63;86.12;99278.54;1745389;80;21437;-65
2021/01/05 15:59:38;;;;;;;20.12;12.82;;;;;;;1.58;86.30;99287.58;1761719;81;21076;-65
2021/01/05 16:02:05;;;;;;;20.90;14.80;;;;;;;1.50;86.33;99288.48;1755584;80;21087;-64
2021/01/05 16:04:33;;;;;;;22.25;14.38;;;;;;;1.38;86.71;99286.45;1759720;81;21567;-64
2021/01/05 16:07:01;;;;;;;21.27;14.03;;;;;;;1.36;87.14;99293.73;1758317;80;21128;-65
2021/01/05 16:09:28;;;;;;;19.20;12.70;;;;;;;1.38;87.43;99281.75;1702051;81;21227;-65
2021/01/05 16:11:56;;;;;;;16.23;10.88;;;;;;;1.44;87.36;99289.38;1746293;80;21103;-64
2021/01/05 16:14:24;;;;;;;15.00;11.65;;;;;;;1.47;87.29;99286.80;1758636;81;21167;-65
2021/01/05 16:16:53;;;;;;;14.38;10.32;;;;;;;1.48;87.16;99286.36;1743053;81;21182;-65
2021/01/05 16:19:23;;;;;;;15.88;10.40;;;;;;;1.44;86.87;99284.68;1764038;81;21179;-66
2021/01/05 16:21:56;;;;;;;12.50;8.93;;;;;;;1.40;87.05;99274.06;1755565;81;21429;-65
2021/01/05 16:24:24;;;;;;;11.50;9.38;;;;;;;1.38;87.06;99277.48;1764062;81;28605;-66
2021/01/05 16:26:55;;;;;;;10.88;8.45;;;;;;;1.37;87.16;99274.50;1752739;80;21123;-65
2021/01/05 16:29:22;;;;;;;15.98;10.05;;;;;;;1.39;87.14;99271.92;1722347;80;21063;-65
2021/01/05 16:31:53;;;;;;;12.73;9.35;;;;;;;1.38;87.12;99272.36;1743223;80;21154;-64
2021/01/05 16:34:21;;;;;;;9.55;6.97;;;;;;;1.42;87.29;99271.02;1759846;80;21516;-64
2021/01/05 16:36:50;;;;;;;11.80;8.23;;;;;;;1.47;87.13;99266.72;1750741;80;21192;-65
2021/01/05 16:39:17;;;;;;;9.88;7.72;;;;;;;1.47;86.81;99263.73;1748616;81;21079;-64
2021/01/05 16:41:44;;;;;;;8.30;7.33;;;;;;;1.45;86.72;99258.19;1758605;81;21890;-65
2021/01/05 16:44:12;;;;;;;11.03;8.00;;;;;;;1.43;86.75;99268.88;1760410;81;21270;-67